Time;durP1;ratioP1;P1;durP2;ratioP2;P2;SDS_P1;SDS_P2;PMS_P1;PMS_P2;Temp;Humidity;BMP_temperature;BMP_pressure;BME280_temperature;BME280_humidity;BME280_pressure;Samples;Min_cycle;Max_cycle;Signal;HPM_P1;HPM_P2
2023/02/19 00:01:54;;;;;;;6.93;5.37;;;9.40;99.90;;;-141.84;82.11;19143.22;5049527;28;20262;-63
2023/02/19 00:04:23;;;;;;;7.37;4.90;;;9.40;99.90;;;-141.84;82.58;19133.06;5053177;28;20239;-63
2023/02/19 00:06:51;;;;;;;6.90;5.10;;;9.40;99.90;;;-141.84;83.12;19122.91;5053187;28;20723;-63
2023/02/19 00:09:20;;;;;;;6.53;4.50;;;9.40;99.90;;;-141.84;83.25;19098.50;5053292;28;20228;-63
2023/02/19 00:11:49;;;;;;;5.77;4.63;;;9.40;99.90;;;-141.84;83.07;19114.78;5053383;28;20201;-64
2023/02/19 00:14:21;;;;;;;6.43;4.80;;;9.30;99.90;;;-141.84;82.67;19118.84;5053750;28;20654;-64
2023/02/19 00:16:50;;;;;;;6.70;4.87;;;9.40;99.90;;;-141.84;83.47;19122.91;5052746;28;20237;-63
2023/02/19 00:19:20;;;;;;;6.80;5.40;;;9.30;99.90;;;-141.84;84.35;19082.25;5053085;28;20783;-63
2023/02/19 00:21:51;;;;;;;8.93;6.60;;;9.30;99.90;;;-141.84;85.02;19059.91;5052919;28;20225;-62
2023/02/19 00:24:19;;;;;;;9.23;7.33;;;9.20;99.90;;;-141.84;84.80;19070.06;5052904;28;20574;-65
2023/02/19 00:26:48;;;;;;;7.80;6.03;;;9.20;99.90;;;-141.84;84.97;19076.16;5052950;28;20206;-63
2023/02/19 00:29:21;;;;;;;9.13;6.60;;;9.20;99.90;;;-141.84;84.53;19088.34;5053163;28;20236;-66
2023/02/19 00:31:49;;;;;;;10.13;7.53;;;9.30;99.90;;;-141.84;84.68;19051.78;5052505;28;20236;-64
2023/02/19 00:34:18;;;;;;;8.00;6.60;;;9.30;99.90;;;-141.84;84.03;19088.34;5052376;28;20229;-65
2023/02/19 00:36:46;;;;;;;7.33;5.73;;;9.30;99.90;;;-141.84;83.77;19110.72;5052510;28;20721;-65
2023/02/19 00:39:17;;;;;;;7.00;5.87;;;9.30;99.90;;;-141.84;84.00;19104.59;5052657;28;20232;-63
2023/02/19 00:41:45;;;;;;;7.50;5.83;;;9.30;99.90;;;-141.84;84.69;19078.19;5053274;28;20240;-64
2023/02/19 00:44:15;;;;;;;7.57;6.00;;;9.30;99.90;;;-141.84;85.43;19086.31;5052543;28;20221;-64
2023/02/19 00:46:47;;;;;;;8.80;6.43;;;9.30;99.90;;;-141.84;86.37;19084.28;5051851;28;20229;-64
2023/02/19 00:49:20;;;;;;;8.43;6.60;;;9.20;99.90;;;-141.84;86.60;19066.00;5051726;28;20244;-64
2023/02/19 00:51:49;;;;;;;8.53;6.47;;;9.20;99.90;;;-141.84;87.12;19049.75;5052152;28;20225;-63
2023/02/19 00:54:17;;;;;;;9.63;5.63;;;9.20;99.90;;;-141.84;88.08;19059.91;5052387;28;20305;-65
2023/02/19 00:56:46;;;;;;;6.27;5.27;;;9.10;99.90;;;-141.84;88.16;19059.91;5052935;28;20198;-63
2023/02/19 00:59:14;;;;;;;7.37;6.13;;;9.10;99.90;;;-141.84;88.30;19017.25;5052719;28;20312;-64
2023/02/19 01:01:45;;;;;;;6.50;5.70;;;9.10;99.90;;;-141.84;89.14;19049.75;5051973;28;20225;-63
2023/02/19 01:04:15;;;;;;;7.13;6.43;;;9.00;99.90;;;-141.84;89.49;19033.50;5052021;28;20236;-64
2023/02/19 01:06:43;;;;;;;9.57;7.40;;;9.00;99.90;;;-141.84;89.70;19025.38;5051893;28;20768;-63
2023/02/19 01:09:12;;;;;;;8.40;6.83;;;9.00;99.90;;;-141.84;90.39;19029.44;5052034;28;20228;-63
2023/02/19 01:11:40;;;;;;;8.43;6.37;;;8.90;99.90;;;-141.84;90.50;19013.16;5052505;28;20205;-63
2023/02/19 01:14:10;;;;;;;9.67;7.10;;;8.90;99.90;;;-141.84;91.13;19021.31;5050975;28;20237;-63
2023/02/19 01:16:38;;;;;;;10.83;7.57;;;8.90;99.90;;;-141.84;91.31;19013.16;5051683;28;20234;-64
2023/02/19 01:19:07;;;;;;;9.27;7.37;;;8.90;99.90;;;-141.84;91.30;18972.53;5051850;28;20240;-65
2023/02/19 01:21:36;;;;;;;10.30;7.57;;;8.80;99.90;;;-141.84;91.89;18990.81;5051319;28;20221;-64
2023/02/19 01:24:04;;;;;;;9.30;7.43;;;8.90;99.90;;;-141.84;91.85;18972.53;5051735;28;20228;-63
2023/02/19 01:26:33;;;;;;;11.47;8.07;;;8.90;99.90;;;-141.84;91.89;18972.53;5052225;28;20661;-64
2023/02/19 01:29:02;;;;;;;11.47;8.40;;;8.90;99.90;;;-141.84;92.29;18982.69;5051492;28;20566;-64
2023/02/19 01:31:30;;;;;;;11.20;8.53;;;8.80;99.90;;;-141.84;92.53;18938.00;5051476;28;20588;-63
2023/02/19 01:34:01;;;;;;;11.80;8.73;;;8.80;99.90;;;-141.84;93.08;18935.97;5051437;28;20233;-63
2023/02/19 01:36:33;;;;;;;13.07;9.77;;;8.80;99.90;;;-141.84;93.30;18946.13;5051709;28;20225;-63
2023/02/19 01:39:04;;;;;;;11.80;9.27;;;8.80;99.90;;;-141.84;93.30;18938.00;5051339;28;20193;-64
2023/02/19 01:41:38;;;;;;;15.77;11.93;;;8.70;99.90;;;-141.84;93.82;18909.53;5052204;28;20189;-63
2023/02/19 01:44:46;;;;;;;15.53;11.73;;;8.70;99.90;;;-141.84;94.15;18944.09;5051460;28;20712;-63
2023/02/19 01:47:18;;;;;;;16.60;12.00;;;8.70;99.90;;;-141.84;94.18;18935.97;5051190;28;20225;-62
2023/02/19 01:49:52;;;;;;;11.27;8.50;;;8.70;99.90;;;-141.84;93.99;18915.63;5051248;28;20233;-63
2023/02/19 01:52:29;;;;;;;13.37;10.97;;;8.60;99.90;;;-141.84;94.00;18935.97;5051147;28;20713;-64
2023/02/19 01:54:59;;;;;;;12.87;10.00;;;8.60;99.90;;;-141.84;94.10;18911.56;5049824;28;20240;-64
2023/02/19 01:57:35;;;;;;;17.30;14.10;;;8.60;99.90;;;-141.84;94.47;18923.78;5051350;28;20229;-62
2023/02/19 02:00:09;;;;;;;13.70;11.53;;;8.60;99.90;;;-141.84;94.71;18893.28;5051191;28;20189;-63
2023/02/19 02:02:39;;;;;;;15.40;13.20;;;8.60;99.90;;;-141.84;95.38;18883.13;5051679;28;20233;-63
2023/02/19 02:05:17;;;;;;;15.73;13.80;;;8.50;99.90;;;-141.84;95.58;18931.91;5050821;28;20233;-63
2023/02/19 02:10:33;;;;;;;13.03;9.93;;;8.60;99.90;;;-141.84;96.03;18872.97;5050626;28;20225;-63
2023/02/19 02:13:02;;;;;;;15.70;12.47;;;8.50;99.90;;;-141.84;96.19;18840.47;5051104;28;20232;-63
2023/02/19 02:15:43;;;;;;;11.63;9.10;;;8.50;99.90;;;-141.84;96.37;18868.91;5050575;28;20727;-64
2023/02/19 02:18:28;;;;;;;10.57;9.30;;;8.50;99.90;;;-141.84;96.51;18832.34;5050706;28;20232;-63
2023/02/19 02:21:45;;;;;;;11.00;9.20;;;8.50;99.90;;;-141.84;96.94;18844.53;5050246;28;20201;-64
2023/02/19 02:24:56;;;;;;;11.70;8.77;;;8.50;99.90;;;-141.84;97.11;18816.06;5050581;28;20275;-63
2023/02/19 02:27:53;;;;;;;16.30;13.43;;;8.50;99.90;;;-141.84;97.33;18805.91;5047343;28;20236;-63
2023/02/19 02:30:37;;;;;;;18.50;15.10;;;8.50;99.90;;;-141.84;97.51;18809.97;5050473;28;20232;-62
2023/02/19 02:33:24;;;;;;;21.87;17.80;;;8.40;99.90;;;-141.84;97.86;18812.00;5050495;28;20664;-63
2023/02/19 02:35:58;;;;;;;19.20;15.43;;;8.50;99.90;;;-141.84;97.96;18822.19;5050062;28;20216;-63
2023/02/19 02:38:31;;;;;;;14.83;12.73;;;8.40;99.90;;;-141.84;98.18;18747.00;5051038;28;20197;-63
2023/02/19 02:41:00;;;;;;;9.53;7.23;;;8.40;99.90;;;-141.84;98.38;18724.66;5050117;28;20221;-63
2023/02/19 02:43:28;;;;;;;8.83;7.17;;;8.40;99.90;;;-141.84;98.39;18742.94;5050214;28;20237;-62
2023/02/19 02:45:58;;;;;;;13.10;11.70;;;8.40;99.90;;;-141.84;98.37;18767.31;5050004;28;20221;-63
2023/02/19 02:48:35;;;;;;;11.00;9.90;;;8.40;99.90;;;-141.84;98.57;18742.94;5050395;28;20640;-64
2023/02/19 02:51:14;;;;;;;13.13;11.47;;;8.40;99.90;;;-141.84;98.55;18747.00;5049756;28;20664;-64
2023/02/19 02:56:35;;;;;;;7.87;7.03;;;8.40;99.90;;;-141.84;98.21;18755.13;5050088;28;20217;-63
2023/02/19 02:59:08;;;;;;;9.73;8.83;;;8.40;99.90;;;-141.84;97.98;18704.31;5049830;28;20221;-62
2023/02/19 03:05:50;;;;;;;6.93;5.67;;;8.40;99.90;;;-141.84;98.15;18700.25;5049693;28;20225;-63
2023/02/19 03:07:35;;;;;;;8.53;6.70;;;8.40;99.90;;;-141.84;97.73;18724.66;5049585;28;20235;-63
2023/02/19 03:10:07;;;;;;;5.53;5.03;;;8.40;99.90;;;-141.84;97.72;18751.06;5049712;28;20244;-62
2023/02/19 03:21:09;;;;;;;10.60;9.50;;;8.40;99.90;;;-141.84;97.89;18732.78;5049397;28;20871;-63
2023/02/19 03:26:26;;;;;;;14.00;11.13;;;8.40;99.90;;;-141.84;97.78;18724.66;5049751;28;20206;-63
2023/02/19 03:31:44;;;;;;;5.23;4.73;;;8.40;99.90;;;-141.84;97.37;18714.50;5049318;28;20241;-64
2023/02/19 03:34:22;;;;;;;5.03;4.03;;;8.50;99.90;;;-141.84;97.23;18720.59;5049500;28;20306;-63
2023/02/19 03:37:01;;;;;;;4.47;3.80;;;8.50;99.90;;;-141.84;97.03;18740.91;5048883;28;20794;-63
2023/02/19 03:39:30;;;;;;;3.13;2.83;;;8.40;99.90;;;-141.84;96.87;18714.50;5049316;28;20732;-63
2023/02/19 03:42:06;;;;;;;2.57;2.23;;;8.50;99.90;;;-141.84;96.84;18755.13;5049051;28;20201;-63
2023/02/19 03:44:44;;;;;;;1.97;1.80;;;8.50;99.90;;;-141.84;96.84;18740.91;5050121;28;20698;-62
2023/02/19 03:47:22;;;;;;;2.50;1.40;;;8.50;99.90;;;-141.84;97.02;18714.50;5049288;28;20700;-63
2023/02/19 03:49:59;;;;;;;1.80;1.70;;;8.50;99.90;;;-141.84;96.52;18730.75;5049116;28;20328;-63
2023/02/19 03:52:41;;;;;;;1.23;1.13;;;8.50;99.90;;;-141.84;96.29;18749.03;5048598;28;20244;-62
2023/02/19 03:55:17;;;;;;;1.23;1.10;;;8.50;99.90;;;-141.84;96.38;18730.75;5049976;28;20376;-51
2023/02/19 03:57:51;;;;;;;1.50;1.30;;;8.50;99.90;;;-141.84;96.43;18728.72;5049494;28;20224;-54
2023/02/19 04:00:27;;;;;;;1.90;1.80;;;8.50;99.90;;;-141.84;95.83;18728.72;5048992;28;20628;-54
2023/02/19 04:03:06;;;;;;;1.70;1.50;;;8.60;99.90;;;-141.84;96.03;18734.81;5049395;28;20181;-54
2023/02/19 04:05:45;;;;;;;1.27;0.97;;;8.50;99.90;;;-141.84;96.10;18755.13;5050064;28;20589;-52
2023/02/19 04:08:19;;;;;;;1.13;1.00;;;8.60;99.90;;;-141.84;95.85;18749.03;5049120;28;20205;-53
2023/02/19 04:10:50;;;;;;;0.70;0.70;;;8.50;99.90;;;-141.84;95.63;18751.06;5049131;28;20228;-53
2023/02/19 04:13:26;;;;;;;0.93;0.80;;;8.60;99.90;;;-141.84;95.91;18740.91;5049253;28;20252;-53
2023/02/19 04:16:01;;;;;;;1.13;0.80;;;8.50;99.90;;;-141.84;96.16;18751.06;5049021;28;20227;-53
2023/02/19 04:18:35;;;;;;;1.10;1.00;;;8.50;99.90;;;-141.84;96.78;18696.19;5049016;28;20233;-55
2023/02/19 04:21:07;;;;;;;1.10;1.00;;;8.50;99.90;;;-141.84;96.98;18696.19;5049012;28;20537;-55
2023/02/19 04:23:43;;;;;;;2.43;1.10;;;8.50;99.90;;;-141.84;97.28;18716.53;5049886;28;20272;-54
2023/02/19 04:26:14;;;;;;;1.97;1.20;;;8.50;99.90;;;-141.84;97.26;18736.84;5048891;28;20236;-54
2023/02/19 04:28:43;;;;;;;1.17;1.07;;;8.50;99.90;;;-141.84;97.62;18724.66;5049319;28;20644;-54
2023/02/19 04:31:11;;;;;;;0.80;0.80;;;8.50;99.90;;;-141.84;97.31;18749.03;5048829;28;20225;-55
2023/02/19 04:33:40;;;;;;;0.70;0.70;;;8.60;99.90;;;-141.84;96.81;18740.91;5048908;28;20265;-54
2023/02/19 04:36:11;;;;;;;0.73;0.73;;;8.60;99.90;;;-141.84;96.71;18734.81;5048887;28;20232;-51
2023/02/19 04:38:39;;;;;;;0.70;0.70;;;8.60;99.90;;;-141.84;96.69;18728.72;5049425;28;20614;-54
2023/02/19 04:41:09;;;;;;;0.87;0.83;;;8.50;99.90;;;-141.84;96.82;18744.97;5048885;28;20229;-54
2023/02/19 04:43:37;;;;;;;0.80;0.80;;;8.50;99.90;;;-141.84;96.74;18722.63;5048935;28;20308;-53
2023/02/19 04:46:05;;;;;;;0.87;0.87;;;8.50;99.90;;;-141.84;96.70;18734.81;5048915;28;20229;-55
2023/02/19 04:48:34;;;;;;;0.70;0.70;;;8.50;99.90;;;-141.84;96.15;18728.72;5048851;28;20225;-52
2023/02/19 04:51:06;;;;;;;0.60;0.60;;;8.60;99.90;;;-141.84;96.09;18742.94;5052489;28;20205;-54
2023/02/19 04:53:36;;;;;;;0.70;0.70;;;8.50;99.90;;;-141.84;95.91;18744.97;5052991;28;20577;-54
2023/02/19 04:56:10;;;;;;;0.73;0.70;;;8.50;99.90;;;-141.84;95.40;18761.22;5052303;28;20221;-53
2023/02/19 04:58:39;;;;;;;0.60;0.60;;;8.50;99.90;;;-141.84;95.22;18728.72;5052284;28;20221;-54
2023/02/19 05:01:09;;;;;;;0.50;0.50;;;8.40;99.90;;;-141.84;95.46;18730.75;5052132;28;20256;-56
2023/02/19 05:03:38;;;;;;;0.57;0.57;;;8.40;99.90;;;-141.84;95.29;18722.63;5052079;28;20309;-54
2023/02/19 05:06:10;;;;;;;0.53;0.50;;;8.40;99.90;;;-141.84;94.51;18720.59;5052178;28;20288;-49
2023/02/19 05:08:40;;;;;;;0.43;0.43;;;8.40;99.90;;;-141.84;94.99;18708.41;5052642;28;20208;-54
2023/02/19 05:11:11;;;;;;;0.70;0.53;;;8.40;99.90;;;-141.84;95.36;18730.75;5052028;28;20221;-51
2023/02/19 05:13:40;;;;;;;0.70;0.70;;;8.30;99.90;;;-141.84;95.35;18724.66;5051889;28;20229;-54
2023/02/19 05:16:14;;;;;;;1.33;0.67;;;8.40;99.90;;;-141.84;95.51;18716.53;5051855;28;20229;-54
2023/02/19 05:18:45;;;;;;;1.07;0.70;;;8.40;99.90;;;-141.84;95.92;18692.13;5051692;28;20229;-51
2023/02/19 05:21:14;;;;;;;0.83;0.83;;;8.30;99.90;;;-141.84;96.53;18740.91;5051846;28;20236;-51
2023/02/19 05:23:44;;;;;;;1.87;1.20;;;8.30;99.90;;;-141.84;96.82;18696.19;5051998;28;20556;-56
2023/02/19 05:26:16;;;;;;;0.93;0.93;;;8.40;99.90;;;-141.84;97.01;18718.56;5051950;28;20213;-50
2023/02/19 05:28:45;;;;;;;1.27;1.17;;;8.40;99.90;;;-141.84;97.34;18720.59;5051510;28;20313;-50
2023/02/19 05:31:14;;;;;;;1.33;1.23;;;8.40;99.90;;;-141.84;96.80;18722.63;5051503;28;20225;-54
2023/02/19 05:33:44;;;;;;;1.80;1.67;;;8.40;99.90;;;-141.84;96.68;18714.50;5051560;28;20327;-53
2023/02/19 05:36:14;;;;;;;3.50;2.27;;;8.40;99.90;;;-141.84;96.78;18716.53;5051689;28;20229;-56
2023/02/19 05:38:43;;;;;;;3.07;2.77;;;8.50;99.90;;;-141.84;96.85;18696.19;5052053;28;20236;-51
2023/02/19 05:41:14;;;;;;;8.73;7.17;;;8.40;99.90;;;-141.84;97.12;18700.25;5051717;28;20224;-49
2023/02/19 05:43:46;;;;;;;3.73;3.43;;;8.40;99.90;;;-141.84;97.28;18679.94;5051621;28;20233;-52
2023/02/19 05:46:18;;;;;;;3.43;3.13;;;8.40;99.90;;;-141.84;97.24;18716.53;5052042;28;20622;-54
2023/02/19 05:48:47;;;;;;;5.27;4.80;;;8.40;99.90;;;-141.84;96.95;18730.75;5051773;28;20221;-54
2023/02/19 05:51:20;;;;;;;6.33;5.73;;;8.40;99.90;;;-141.84;96.99;18696.19;5051629;28;20225;-51
2023/02/19 05:53:50;;;;;;;4.63;4.23;;;8.40;99.90;;;-141.84;97.05;18667.75;5051709;28;20205;-53
2023/02/19 05:56:30;;;;;;;4.30;3.70;;;8.40;99.90;;;-141.84;97.03;18690.09;5052530;28;20657;-55
2023/02/19 05:58:59;;;;;;;4.13;3.73;;;8.40;99.90;;;-141.84;97.66;18688.06;5051059;28;20233;-55
2023/02/19 06:01:29;;;;;;;5.43;4.93;;;8.30;99.90;;;-141.84;98.03;18631.19;5050748;28;20228;-55
2023/02/19 06:03:58;;;;;;;7.27;6.40;;;8.30;99.90;;;-141.84;98.31;18637.28;5051007;28;20247;-51
2023/02/19 06:06:27;;;;;;;6.90;6.20;;;8.30;99.90;;;-141.84;98.59;18649.47;5050988;28;20229;-54
2023/02/19 06:08:57;;;;;;;5.67;5.00;;;8.40;99.90;;;-141.84;98.71;18643.38;5051102;28;20194;-49
2023/02/19 06:11:25;;;;;;;5.27;4.73;;;8.40;99.90;;;-141.84;98.69;18661.66;5051678;28;20201;-56
2023/02/19 06:13:53;;;;;;;7.83;7.03;;;8.40;99.90;;;-141.84;98.66;18629.16;5050513;28;20236;-54
2023/02/19 06:16:22;;;;;;;3.77;2.80;;;8.40;99.90;;;-141.84;98.64;18643.38;5050432;28;20221;-56
2023/02/19 06:18:50;;;;;;;3.80;3.50;;;8.50;99.90;;;-141.84;98.45;18643.38;5051265;28;20232;-54
2023/02/19 06:21:20;;;;;;;2.67;2.47;;;8.40;99.90;;;-141.84;98.53;18631.19;5050954;28;20225;-53
2023/02/19 06:23:48;;;;;;;4.03;2.20;;;8.40;99.90;;;-141.84;98.55;18631.19;5050405;28;20198;-54
2023/02/19 06:26:21;;;;;;;3.40;3.10;;;8.40;99.90;;;-141.84;98.50;18635.25;5051285;28;20208;-53
2023/02/19 06:28:52;;;;;;;2.50;2.30;;;8.40;99.90;;;-141.84;98.53;18612.91;5050760;28;20232;-54
2023/02/19 06:31:22;;;;;;;2.37;1.70;;;8.50;99.90;;;-141.84;98.27;18600.72;5051168;28;20256;-54
2023/02/19 06:33:50;;;;;;;2.33;2.00;;;8.50;99.90;;;-141.84;97.93;18655.56;5050475;28;20324;-51
2023/02/19 06:36:20;;;;;;;2.07;1.70;;;8.60;99.90;;;-141.84;97.55;18655.56;5050456;28;20324;-53
2023/02/19 06:38:49;;;;;;;1.70;1.60;;;8.50;99.90;;;-141.84;97.57;18637.28;5050279;28;20181;-55
2023/02/19 06:41:19;;;;;;;2.20;2.00;;;8.50;99.90;;;-141.84;97.42;18655.56;5051115;28;20255;-53
2023/02/19 06:43:47;;;;;;;2.73;2.53;;;8.50;99.90;;;-141.84;95.60;18669.78;5051052;28;20229;-55
2023/02/19 06:46:16;;;;;;;2.03;1.80;;;8.60;99.90;;;-141.84;90.44;18690.09;5051051;28;20229;-52
2023/02/19 06:48:45;;;;;;;2.20;1.93;;;8.40;99.90;;;-141.84;87.70;18684.00;5049994;28;20229;-50
2023/02/19 06:51:17;;;;;;;2.20;2.00;;;8.20;99.90;;;-141.84;87.66;18686.03;5050046;28;20225;-51
2023/02/19 06:53:46;;;;;;;2.00;1.60;;;8.00;99.90;;;-141.84;87.46;18653.53;5050578;28;20617;-55
2023/02/19 06:56:28;;;;;;;2.23;1.40;;;7.90;99.90;;;-141.84;88.10;18665.72;5050274;28;20233;-55
2023/02/19 06:58:59;;;;;;;1.60;1.50;;;7.70;99.90;;;-141.84;86.24;18675.88;5050650;28;20868;-53
2023/02/19 07:01:30;;;;;;;1.50;1.40;;;7.70;99.90;;;-141.84;85.40;18649.47;5050305;28;20241;-55
2023/02/19 07:03:58;;;;;;;1.70;1.60;;;7.70;99.90;;;-141.84;86.54;18677.91;5050657;28;20220;-54
2023/02/19 07:06:27;;;;;;;1.80;1.60;;;7.60;99.90;;;-141.84;86.51;18692.13;5049832;28;20225;-54
2023/02/19 07:08:58;;;;;;;2.60;2.20;;;7.50;99.90;;;-141.84;86.26;18688.06;5049333;28;20275;-53
2023/02/19 07:11:32;;;;;;;2.10;2.00;;;7.50;99.90;;;-141.84;86.12;18631.19;5049754;28;20209;-54
2023/02/19 07:14:02;;;;;;;2.10;1.90;;;7.40;99.90;;;-141.84;85.14;18679.94;5049332;28;20683;-53
2023/02/19 07:16:31;;;;;;;2.70;1.93;;;7.40;99.90;;;-141.84;85.50;18647.44;5050403;28;20225;-53
2023/02/19 07:19:01;;;;;;;2.23;2.07;;;7.20;99.90;;;-141.84;86.16;18657.59;5050336;28;20225;-51
2023/02/19 07:21:30;;;;;;;2.30;2.10;;;7.20;99.90;;;-141.84;85.04;18659.63;5038211;28;20245;-54
2023/02/19 07:23:58;;;;;;;2.63;2.03;;;7.20;99.90;;;-141.84;85.08;18665.72;5030497;28;20680;-55
2023/02/19 07:26:28;;;;;;;2.73;1.90;;;7.10;99.90;;;-141.84;84.49;18681.97;5030781;28;20213;-54
2023/02/19 07:28:56;;;;;;;2.93;2.00;;;7.00;99.90;;;-141.84;84.97;18643.38;5029922;28;20230;-54
2023/02/19 07:31:24;;;;;;;2.40;1.80;;;6.80;99.90;;;-141.84;84.90;18637.28;5029694;28;20229;-55
2023/02/19 07:33:54;;;;;;;2.10;1.90;;;6.80;99.90;;;-141.84;85.07;18651.50;5029685;28;20234;-56
2023/02/19 07:36:24;;;;;;;2.10;1.90;;;6.60;99.90;;;-141.84;84.39;18639.31;5029497;28;20230;-58
2023/02/19 07:38:56;;;;;;;3.27;2.27;;;6.50;99.90;;;-141.84;84.25;18641.34;5029783;28;20202;-53
2023/02/19 07:41:27;;;;;;;5.23;3.83;;;6.50;99.90;;;-141.84;84.61;18659.63;5030261;28;20233;-56
2023/02/19 07:43:55;;;;;;;4.33;3.43;;;6.40;99.90;;;-141.84;84.44;18655.56;5030272;28;20236;-54
2023/02/19 07:46:24;;;;;;;6.00;3.50;;;6.30;99.90;;;-141.84;84.66;18600.72;5030073;28;20225;-54
2023/02/19 07:48:52;;;;;;;5.03;3.13;;;6.30;99.90;;;-141.84;84.44;18635.25;5030014;28;20270;-54
2023/02/19 07:51:22;;;;;;;4.87;3.83;;;6.30;99.90;;;-141.84;84.67;18621.03;5045502;28;20713;-56
2023/02/19 07:53:50;;;;;;;3.37;2.97;;;6.20;99.90;;;-141.84;84.67;18639.31;5050289;28;20217;-54
2023/02/19 07:56:20;;;;;;;3.40;3.10;;;6.20;99.90;;;-141.84;84.15;18616.97;5050478;28;20208;-53
2023/02/19 07:58:49;;;;;;;2.93;2.73;;;6.10;99.90;;;-141.84;83.67;18649.47;5049835;28;20249;-54
2023/02/19 08:02:58;;;;;;;4.87;3.10;;;6.10;99.90;;;-141.84;83.66;18655.56;5049289;28;20229;-56
2023/02/19 08:04:12;;;;;;;2.80;2.50;;;6.00;99.90;;;-141.84;83.41;18637.28;5050083;28;20235;-55
2023/02/19 08:06:42;;;;;;;3.30;2.10;;;5.90;99.90;;;-141.84;84.18;18604.78;5049571;28;20217;-55
2023/02/19 08:09:11;;;;;;;2.50;2.03;;;5.90;99.90;;;-141.84;83.84;18661.66;5050437;28;20221;-56
2023/02/19 08:14:27;;;;;;;3.37;2.80;;;5.80;99.90;;;-141.84;84.03;18604.78;5050048;28;20225;-52
2023/02/19 08:16:55;;;;;;;2.83;2.30;;;5.80;99.90;;;-141.84;83.20;18637.28;5048375;28;20548;-55
2023/02/19 08:19:24;;;;;;;4.43;3.70;;;5.90;99.90;;;-141.84;83.47;18655.56;5049030;28;20283;-64
2023/02/19 08:21:53;;;;;;;4.13;3.20;;;5.80;99.90;;;-141.84;83.35;18635.25;5048690;28;20232;-63
2023/02/19 08:24:21;;;;;;;3.47;3.10;;;5.80;99.90;;;-141.84;84.47;18641.34;5052593;28;20992;-64
2023/02/19 08:26:50;;;;;;;3.83;2.30;;;5.80;99.90;;;-141.84;83.76;18651.50;5053681;28;20300;-63
2023/02/19 08:29:18;;;;;;;3.60;2.07;;;5.80;99.90;;;-141.84;84.25;18637.28;5053957;28;20704;-64
2023/02/19 08:31:47;;;;;;;3.43;2.17;;;5.80;99.90;;;-141.84;82.95;18639.31;5053056;28;20232;-64
2023/02/19 08:34:16;;;;;;;2.63;1.70;;;5.80;99.90;;;-141.84;82.44;18673.84;5053025;28;20233;-64
2023/02/19 08:36:44;;;;;;;2.67;1.43;;;5.80;99.90;;;-141.84;82.02;18641.34;5052814;28;20235;-63
2023/02/19 08:39:12;;;;;;;2.33;1.53;;;5.70;99.90;;;-141.84;82.49;18641.34;5053503;28;20303;-63
2023/02/19 08:41:40;;;;;;;2.03;1.60;;;5.50;99.90;;;-141.84;82.52;18629.16;5053790;28;20208;-63
2023/02/19 08:44:08;;;;;;;2.47;1.50;;;5.40;99.90;;;-141.84;82.14;18661.66;5052961;28;20236;-64
2023/02/19 08:46:37;;;;;;;3.33;2.23;;;5.40;99.90;;;-141.84;81.54;18653.53;5052880;28;20236;-63
2023/02/19 08:49:06;;;;;;;1.53;1.43;;;5.50;99.90;;;-141.84;80.69;18671.81;5052729;28;20747;-63
2023/02/19 08:51:35;;;;;;;4.30;2.73;;;5.40;99.90;;;-141.84;80.64;18647.44;5052757;28;20247;-63
2023/02/19 08:54:04;;;;;;;2.03;1.60;;;5.40;99.90;;;-141.84;80.83;18667.75;5052732;28;20236;-63
2023/02/19 08:56:32;;;;;;;1.20;0.90;;;5.40;99.90;;;-141.84;80.04;18653.53;5052689;28;20213;-63
2023/02/19 08:59:00;;;;;;;1.90;1.10;;;5.40;99.90;;;-141.84;79.98;18663.69;5052004;28;20723;-64
2023/02/19 09:01:28;;;;;;;2.03;1.00;;;5.40;99.90;;;-141.84;80.50;18681.97;5051739;28;20578;-63
2023/02/19 09:03:57;;;;;;;1.30;0.90;;;5.40;99.90;;;-141.84;79.70;18696.19;5052045;28;20255;-67
2023/02/19 09:06:26;;;;;;;2.10;1.10;;;5.50;99.90;;;-141.84;79.11;18704.31;5051956;28;20318;-64
2023/02/19 09:08:55;;;;;;;2.17;1.30;;;5.60;99.90;;;-141.84;78.29;18716.53;5051530;28;20217;-63
2023/02/19 09:11:23;;;;;;;1.60;0.90;;;5.70;99.90;;;-141.84;78.81;18698.22;5052028;28;20201;-64
2023/02/19 09:13:51;;;;;;;1.83;1.07;;;5.80;99.90;;;-141.84;78.60;18718.56;5051563;28;20308;-63
2023/02/19 09:16:19;;;;;;;1.67;1.00;;;5.90;99.90;;;-141.84;76.26;18757.16;5051968;28;20230;-64
2023/02/19 09:18:47;;;;;;;1.87;1.00;;;6.00;99.90;;;-141.84;75.77;18769.34;5051712;28;20689;-63
2023/02/19 09:21:15;;;;;;;1.90;1.23;;;6.00;99.90;;;-141.84;76.12;18791.69;5051441;28;20229;-65
2023/02/19 09:23:45;;;;;;;1.47;1.00;;;6.00;99.90;;;-141.84;75.12;18797.78;5052059;28;20209;-64
2023/02/19 09:26:13;;;;;;;2.10;1.27;;;6.20;99.90;;;-141.84;73.78;18809.97;5051878;28;20221;-64
2023/02/19 09:28:42;;;;;;;2.73;2.17;;;6.20;99.90;;;-141.84;74.00;18866.88;5052220;28;20225;-64
2023/02/19 09:31:13;;;;;;;3.00;1.70;;;6.20;99.90;;;-141.84;73.92;18864.84;5051435;28;20233;-65
2023/02/19 09:33:45;;;;;;;1.93;1.73;;;6.10;99.90;;;-141.84;74.89;18818.09;5051634;28;20229;-65
2023/02/19 09:36:17;;;;;;;3.07;1.57;;;6.10;99.90;;;-141.84;75.26;18814.03;5050659;28;20601;-64
2023/02/19 09:38:47;;;;;;;2.83;2.03;;;6.00;99.90;;;-141.84;74.96;18814.03;5052131;28;20220;-64
2023/02/19 09:41:23;;;;;;;2.27;1.47;;;5.90;99.90;;;-141.84;74.52;18791.69;5052710;28;20292;-64
2023/02/19 09:43:52;;;;;;;3.37;1.80;;;5.90;99.90;;;-141.84;73.59;18826.25;5051682;28;20255;-64
2023/02/19 09:46:32;;;;;;;2.43;1.67;;;5.90;99.90;;;-141.84;73.87;18895.31;5051106;28;20235;-64
2023/02/19 09:49:06;;;;;;;3.17;1.70;;;5.90;99.90;;;-141.84;73.38;18872.97;5051349;28;20320;-65
2023/02/19 09:51:39;;;;;;;3.27;1.87;;;6.00;99.90;;;-141.84;73.15;18883.13;5050816;28;20220;-62
2023/02/19 09:54:20;;;;;;;1.30;1.10;;;6.20;99.90;;;-141.84;70.68;18927.84;5051344;28;20233;-64
2023/02/19 09:56:48;;;;;;;2.60;1.50;;;6.40;99.90;;;-141.84;69.18;18966.44;5051363;28;20215;-64
2023/02/19 09:59:23;;;;;;;2.70;1.70;;;6.70;99.90;;;-141.84;68.83;18966.44;5052069;28;20220;-64
2023/02/19 10:01:59;;;;;;;2.40;1.10;;;6.90;99.90;;;-141.84;68.51;18972.53;5050282;28;20224;-65
2023/02/19 10:04:28;;;;;;;1.77;1.20;;;6.90;99.90;;;-141.84;70.14;19003.00;5050959;28;20217;-63
2023/02/19 10:07:02;;;;;;;1.40;1.30;;;7.00;99.90;;;-141.84;68.38;19009.09;5051047;28;20316;-64
2023/02/19 10:09:32;;;;;;;3.30;2.20;;;6.90;99.90;;;-141.84;68.54;18998.94;5048196;28;20228;-65
2023/02/19 10:12:00;;;;;;;2.67;1.80;;;7.10;99.90;;;-141.84;67.48;19063.97;5049654;28;20649;-65
2023/02/19 10:14:39;;;;;;;3.07;1.80;;;7.10;99.90;;;-141.84;67.09;19049.75;5050843;28;20556;-64
2023/02/19 10:17:20;;;;;;;1.43;1.33;;;7.20;99.90;;;-141.84;67.35;19047.72;5050213;28;20580;-65
2023/02/19 10:19:49;;;;;;;1.80;1.67;;;7.10;99.90;;;-141.84;68.29;19041.63;5050989;28;20222;-65
2023/02/19 10:22:19;;;;;;;2.30;1.93;;;7.10;99.90;;;-141.84;68.99;19015.19;5049926;28;20232;-64
2023/02/19 10:24:54;;;;;;;2.60;1.80;;;7.20;99.90;;;-141.84;65.11;19094.44;5050397;28;20220;-63
2023/02/19 10:27:25;;;;;;;2.63;1.90;;;7.50;99.90;;;-141.84;65.53;19126.97;5049761;28;20233;-65
2023/02/19 10:29:54;;;;;;;2.13;1.70;;;7.50;99.90;;;-141.84;66.20;19088.34;5049974;28;20205;-65
2023/02/19 10:32:26;;;;;;;2.57;1.47;;;7.40;99.90;;;-141.84;66.69;19139.16;5050782;28;20198;-66
2023/02/19 10:35:11;;;;;;;3.63;1.50;;;7.50;99.90;;;-141.84;66.22;19080.22;5049867;28;20697;-64
2023/02/19 10:37:45;;;;;;;2.20;1.90;;;7.30;99.90;;;-141.84;65.86;19047.72;5050130;28;20225;-65
2023/02/19 10:40:19;;;;;;;1.97;1.83;;;7.10;99.90;;;-141.84;66.30;19076.16;5050493;28;20229;-65
2023/02/19 10:42:50;;;;;;;3.23;2.33;;;7.00;99.90;;;-141.84;65.23;19078.19;5046748;28;20643;-64
2023/02/19 10:45:24;;;;;;;6.73;4.17;;;7.10;99.90;;;-141.84;65.53;19084.28;5032863;28;20221;-64
2023/02/19 10:47:53;;;;;;;3.07;2.77;;;7.10;99.90;;;-141.84;65.44;19047.72;5028660;28;20202;-65
2023/02/19 10:50:29;;;;;;;4.10;3.00;;;7.00;99.90;;;-141.84;66.51;19096.47;5037719;28;20209;-65
2023/02/19 10:53:00;;;;;;;3.67;2.73;;;7.10;99.90;;;-141.84;66.11;19106.66;5048062;28;20233;-65
2023/02/19 10:55:33;;;;;;;3.23;2.53;;;7.20;99.90;;;-141.84;65.23;19068.03;5036116;28;20564;-64